createdAt,value
2017-09-15T00:00:07.971Z,9.77
2017-09-15T00:02:34.165Z,9.82
2017-09-15T00:05:01.196Z,9.76
2017-09-15T00:07:28.194Z,9.87
2017-09-15T00:09:54.489Z,9.90
2017-09-15T00:12:21.505Z,9.98
2017-09-15T00:14:47.713Z,9.88
2017-09-15T00:17:13.966Z,9.88
2017-09-15T00:19:40.185Z,9.99
2017-09-15T00:22:06.436Z,9.92
2017-09-15T00:24:32.633Z,9.87
2017-09-15T00:27:01.658Z,9.80
2017-09-15T00:29:27.879Z,9.75
2017-09-15T00:31:54.126Z,9.70
2017-09-15T00:34:20.415Z,9.68
2017-09-15T00:36:47.419Z,9.63
2017-09-15T00:39:13.671Z,9.71
2017-09-15T00:41:39.985Z,9.80
2017-09-15T00:44:06.229Z,9.77
2017-09-15T00:46:32.433Z,9.71
2017-09-15T00:48:59.845Z,9.74
2017-09-15T00:51:26.226Z,9.71
2017-09-15T00:53:52.530Z,9.77
2017-09-15T00:56:18.765Z,9.83
2017-09-15T00:58:45.809Z,9.80
2017-09-15T01:01:12.121Z,9.74
2017-09-15T01:03:38.328Z,9.65
2017-09-15T01:06:04.557Z,9.68
2017-09-15T01:08:30.849Z,9.79
2017-09-15T01:10:57.087Z,9.67
2017-09-15T01:13:23.381Z,9.70
2017-09-15T01:15:49.611Z,9.68
2017-09-15T01:18:15.826Z,9.64
2017-09-15T01:20:42.233Z,9.57
2017-09-15T01:23:08.578Z,9.54
2017-09-15T01:25:34.857Z,9.50
2017-09-15T01:28:01.133Z,9.41
2017-09-15T01:30:27.439Z,9.42
2017-09-15T01:32:53.665Z,9.41
2017-09-15T01:35:19.850Z,9.35
2017-09-15T01:37:46.143Z,9.40
2017-09-15T01:40:12.413Z,9.41
2017-09-15T01:42:38.720Z,9.32
2017-09-15T01:45:04.955Z,9.31
2017-09-15T01:47:31.165Z,9.23
2017-09-15T01:49:57.442Z,9.18
2017-09-15T01:52:23.735Z,9.17
2017-09-15T01:54:49.971Z,9.18
2017-09-15T01:57:16.278Z,9.08
2017-09-15T01:59:43.261Z,8.97
2017-09-15T02:02:09.474Z,8.91
2017-09-15T02:04:36.454Z,8.87
2017-09-15T02:07:02.676Z,8.82
2017-09-15T02:09:28.913Z,8.78
2017-09-15T02:11:55.211Z,8.81
2017-09-15T02:14:22.194Z,8.73
2017-09-15T02:16:48.441Z,8.67
2017-09-15T02:19:14.714Z,8.61
2017-09-15T02:21:40.908Z,8.57
2017-09-15T02:24:07.105Z,8.58
2017-09-15T02:26:33.378Z,8.55
2017-09-15T02:28:59.637Z,8.57
2017-09-15T02:31:25.832Z,8.57
2017-09-15T02:33:52.135Z,8.56
2017-09-15T02:36:18.402Z,8.67
2017-09-15T02:38:44.651Z,8.72
2017-09-15T02:41:10.927Z,8.80
2017-09-15T02:43:37.210Z,8.80
2017-09-15T02:46:03.390Z,8.80
2017-09-15T02:48:29.705Z,8.73
2017-09-15T02:50:55.972Z,8.76
2017-09-15T02:53:22.261Z,8.76
2017-09-15T02:55:48.582Z,8.78
2017-09-15T02:58:16.614Z,8.78
2017-09-15T03:00:42.909Z,8.77
2017-09-15T03:03:09.142Z,8.71
2017-09-15T03:05:35.381Z,8.62
2017-09-15T03:08:01.933Z,8.61
2017-09-15T03:10:28.162Z,8.56
2017-09-15T03:12:54.382Z,8.58
2017-09-15T03:15:20.618Z,8.65
2017-09-15T03:17:46.853Z,8.71
2017-09-15T03:20:13.226Z,8.70
2017-09-15T03:22:39.541Z,8.72
2017-09-15T03:25:05.788Z,8.74
2017-09-15T03:27:33.996Z,8.76
2017-09-15T03:30:00.321Z,8.72
2017-09-15T03:32:26.650Z,8.63
2017-09-15T03:34:52.999Z,8.59
2017-09-15T03:37:19.518Z,8.44
2017-09-15T03:39:45.769Z,8.27
2017-09-15T03:42:12.065Z,8.16
2017-09-15T03:44:38.364Z,8.04
2017-09-15T03:47:04.556Z,7.91
2017-09-15T03:49:30.873Z,7.74
2017-09-15T03:51:57.069Z,7.67
2017-09-15T03:54:23.361Z,7.71
2017-09-15T03:56:49.598Z,7.66
2017-09-15T03:59:15.826Z,7.63
2017-09-15T04:01:42.686Z,7.66
2017-09-15T04:04:09.714Z,7.81
2017-09-15T04:06:36.018Z,7.80
2017-09-15T04:09:07.005Z,7.72
2017-09-15T04:11:33.377Z,7.67
2017-09-15T04:13:59.677Z,7.67
2017-09-15T04:16:25.946Z,7.61
2017-09-15T04:18:52.326Z,7.46
2017-09-15T04:21:20.341Z,7.39
2017-09-15T04:23:46.667Z,7.33
2017-09-15T04:26:12.865Z,7.31
2017-09-15T04:28:39.864Z,7.33
2017-09-15T04:31:06.188Z,7.46
2017-09-15T04:33:32.405Z,7.57
2017-09-15T04:35:58.657Z,7.63
2017-09-15T04:38:25.091Z,7.63
2017-09-15T04:40:51.349Z,7.62
2017-09-15T04:43:17.582Z,7.49
2017-09-15T04:45:43.965Z,7.47
2017-09-15T04:48:10.232Z,7.45
2017-09-15T04:50:40.821Z,7.49
2017-09-15T04:53:07.377Z,7.53
2017-09-15T04:55:33.675Z,7.59
2017-09-15T04:57:59.879Z,7.69
2017-09-15T05:00:26.430Z,7.76
2017-09-15T05:02:52.690Z,7.82
2017-09-15T05:05:19.098Z,7.86
2017-09-15T05:07:45.398Z,7.86
2017-09-15T05:10:12.418Z,7.78
2017-09-15T05:12:38.722Z,7.70
2017-09-15T05:15:04.918Z,7.61
2017-09-15T05:17:31.890Z,7.57
2017-09-15T05:19:58.190Z,7.59
2017-09-15T05:22:25.229Z,7.55
2017-09-15T05:24:51.587Z,7.52
2017-09-15T05:27:18.618Z,7.61
2017-09-15T05:29:44.820Z,7.71
2017-09-15T05:32:11.111Z,7.82
2017-09-15T05:34:38.093Z,7.97
2017-09-15T05:37:04.319Z,8.08
2017-09-15T05:39:30.563Z,8.18
2017-09-15T05:41:56.806Z,8.33
2017-09-15T05:44:23.457Z,8.46
2017-09-15T05:46:49.794Z,8.45
2017-09-15T05:49:16.010Z,8.43
2017-09-15T05:51:42.279Z,8.45
2017-09-15T05:54:08.573Z,8.53
2017-09-15T05:56:38.213Z,8.59
2017-09-15T05:59:04.490Z,8.58
2017-09-15T06:01:30.786Z,8.62
2017-09-15T06:03:58.642Z,8.72
2017-09-15T06:06:24.974Z,8.83
2017-09-15T06:08:51.198Z,8.90
2017-09-15T06:11:17.385Z,8.95
2017-09-15T06:13:43.705Z,9.00
2017-09-15T06:16:09.928Z,9.07
2017-09-15T06:18:36.138Z,9.26
2017-09-15T06:21:02.391Z,9.36
2017-09-15T06:23:28.744Z,9.43
2017-09-15T06:25:55.048Z,9.61
2017-09-15T06:28:25.222Z,9.73
2017-09-15T06:30:51.447Z,9.85
2017-09-15T06:33:17.734Z,9.95
2017-09-15T06:35:47.950Z,10.03
2017-09-15T06:38:14.850Z,10.13
2017-09-15T06:40:41.111Z,10.25
2017-09-15T06:43:12.285Z,10.42
2017-09-15T06:45:39.039Z,10.51
2017-09-15T06:48:05.794Z,10.61
2017-09-15T06:50:36.966Z,10.73
2017-09-15T06:53:04.293Z,10.83
2017-09-15T06:55:30.561Z,10.95
2017-09-15T06:57:56.811Z,11.03
2017-09-15T07:00:23.127Z,11.18
2017-09-15T07:02:49.385Z,11.22
2017-09-15T07:05:15.905Z,11.39
2017-09-15T07:07:42.278Z,11.47
2017-09-15T07:10:09.397Z,11.59
2017-09-15T07:12:35.645Z,11.71
2017-09-15T07:15:01.966Z,11.85
2017-09-15T07:17:28.201Z,11.98
2017-09-15T07:19:54.413Z,12.00
2017-09-15T07:22:22.112Z,12.06
2017-09-15T07:24:48.322Z,12.16
2017-09-15T07:27:14.597Z,12.28
2017-09-15T07:29:40.924Z,12.40
2017-09-15T07:32:07.248Z,12.50
2017-09-15T07:34:33.470Z,12.49
2017-09-15T07:36:59.710Z,12.68
2017-09-15T07:39:25.921Z,12.70
2017-09-15T07:41:52.194Z,12.71
2017-09-15T07:44:18.630Z,12.81
2017-09-15T07:46:45.082Z,12.88
2017-09-15T07:49:12.067Z,12.87
2017-09-15T07:51:39.066Z,12.98
2017-09-15T07:54:05.364Z,13.06
2017-09-15T07:56:31.666Z,13.15
2017-09-15T07:58:58.665Z,13.21
2017-09-15T08:01:24.905Z,13.22
2017-09-15T08:03:52.219Z,13.25
2017-09-15T08:06:18.532Z,13.21
2017-09-15T08:08:44.847Z,13.29
2017-09-15T08:11:12.062Z,13.40
2017-09-15T08:13:39.061Z,13.55
2017-09-15T08:16:05.480Z,13.70
2017-09-15T08:18:36.231Z,13.84
2017-09-15T08:21:09.448Z,13.93
2017-09-15T08:23:36.049Z,14.05
2017-09-15T08:26:05.186Z,14.25
2017-09-15T08:28:40.896Z,14.25
2017-09-15T08:31:10.127Z,14.39
2017-09-15T08:33:41.342Z,14.39
2017-09-15T08:36:21.216Z,14.72
2017-09-15T08:41:32.469Z,15.05
2017-09-15T08:44:02.162Z,15.28
2017-09-15T08:46:37.726Z,15.25
2017-09-15T08:49:19.687Z,15.31
2017-09-15T08:54:31.766Z,14.74
2017-09-15T08:57:08.019Z,14.69
2017-09-15T08:59:47.621Z,14.37
2017-09-15T09:02:20.025Z,14.39
2017-09-15T09:04:48.373Z,14.43
2017-09-15T09:07:22.691Z,16.57
2017-09-15T09:09:49.354Z,20.82
2017-09-15T09:12:15.647Z,24.01
2017-09-15T09:14:49.351Z,26.15
2017-09-15T09:17:19.714Z,28.58
2017-09-15T09:19:47.221Z,29.74
2017-09-15T09:22:13.441Z,29.96
2017-09-15T09:24:43.555Z,30.48
2017-09-15T09:27:15.421Z,30.87
2017-09-15T09:29:46.883Z,30.70
2017-09-15T09:32:18.587Z,30.62
2017-09-15T09:34:48.103Z,31.68
2017-09-15T09:37:19.163Z,31.37
2017-09-15T09:39:52.270Z,32.55
2017-09-15T09:42:22.979Z,32.29
2017-09-15T09:44:53.028Z,31.95
2017-09-15T09:47:26.170Z,32.26
2017-09-15T09:49:58.354Z,32.45
2017-09-15T09:52:28.537Z,33.47
2017-09-15T09:55:02.993Z,32.36
2017-09-15T09:57:36.031Z,30.14
2017-09-15T10:00:07.096Z,30.78
2017-09-15T10:02:37.832Z,31.26
2017-09-15T10:05:07.588Z,32.64
2017-09-15T10:07:42.041Z,33.49
2017-09-15T10:10:15.002Z,32.99
2017-09-15T10:12:45.055Z,32.27
2017-09-15T10:15:16.004Z,32.92
2017-09-15T10:17:45.975Z,33.31
2017-09-15T10:20:15.687Z,29.37
2017-09-15T10:22:45.299Z,27.73
2017-09-15T10:25:13.363Z,28.49
2017-09-15T10:27:44.051Z,28.05
2017-09-15T10:30:14.514Z,26.07
2017-09-15T10:32:43.844Z,23.95
2017-09-15T10:35:14.519Z,22.93
2017-09-15T10:37:48.574Z,21.94
2017-09-15T10:40:20.938Z,21.55
2017-09-15T10:42:51.146Z,21.82
2017-09-15T10:45:22.566Z,23.95
2017-09-15T10:47:53.790Z,24.38
2017-09-15T10:50:28.613Z,24.10
2017-09-15T10:53:00.389Z,24.91
2017-09-15T10:55:30.240Z,24.56
2017-09-15T10:58:07.684Z,25.36
2017-09-15T11:00:39.138Z,25.55
2017-09-15T11:03:07.907Z,25.01
2017-09-15T11:05:37.809Z,25.66
2017-09-15T11:08:09.889Z,26.63
2017-09-15T11:10:39.751Z,28.01
2017-09-15T11:13:10.986Z,28.94
2017-09-15T11:15:40.493Z,29.98
2017-09-15T11:18:11.933Z,31.30
2017-09-15T11:20:42.759Z,31.01
2017-09-15T11:23:13.683Z,29.41
2017-09-15T11:25:45.284Z,27.82
2017-09-15T11:28:16.227Z,28.01
2017-09-15T11:30:47.791Z,30.43
2017-09-15T11:33:20.341Z,31.65
2017-09-15T11:35:50.705Z,32.04
2017-09-15T11:38:20.297Z,33.22
2017-09-15T11:40:50.049Z,32.33
2017-09-15T11:43:19.994Z,32.26
2017-09-15T11:45:51.362Z,32.56
2017-09-15T11:48:22.930Z,33.59
2017-09-15T11:50:54.302Z,32.92
2017-09-15T11:53:22.859Z,33.57
2017-09-15T11:55:52.308Z,32.61
2017-09-15T11:58:23.123Z,30.51
2017-09-15T12:00:53.972Z,29.10
2017-09-15T12:03:23.555Z,28.21
2017-09-15T12:05:53.746Z,26.68
2017-09-15T12:08:20.435Z,25.54
2017-09-15T12:10:47.471Z,24.40
2017-09-15T12:13:14.451Z,23.97
2017-09-15T12:29:05.195Z,21.26
2017-09-15T12:31:35.286Z,20.84
2017-09-15T12:34:03.957Z,20.83
2017-09-15T12:36:30.460Z,22.92
2017-09-15T12:39:02.014Z,23.81
2017-09-15T12:41:28.429Z,23.28
2017-09-15T12:43:55.365Z,23.28
2017-09-15T12:46:22.425Z,25.55
2017-09-15T12:48:49.484Z,27.52
2017-09-15T12:51:16.469Z,28.94
2017-09-15T12:53:42.912Z,29.93
2017-09-15T12:56:09.130Z,29.90
2017-09-15T12:58:35.387Z,28.99
2017-09-15T13:01:01.657Z,28.49
2017-09-15T13:03:27.863Z,28.44
2017-09-15T13:05:54.153Z,27.87
2017-09-15T13:08:21.269Z,26.41
2017-09-15T13:10:47.611Z,25.60
2017-09-15T13:13:13.881Z,26.75
2017-09-15T13:15:40.874Z,28.48
2017-09-15T13:18:07.126Z,28.87
2017-09-15T13:20:33.435Z,30.30
2017-09-15T13:22:59.765Z,30.71
2017-09-15T13:25:28.280Z,31.04
2017-09-15T13:27:54.506Z,31.77
2017-09-15T13:30:20.910Z,31.79
2017-09-15T13:32:47.237Z,31.27
2017-09-15T13:35:13.526Z,30.73
2017-09-15T13:37:39.812Z,29.78
2017-09-15T13:40:06.102Z,27.67
2017-09-15T13:42:32.405Z,26.21
2017-09-15T13:44:58.658Z,25.69
2017-09-15T13:47:30.946Z,24.60
2017-09-15T13:49:58.305Z,24.61
2017-09-15T13:52:29.955Z,23.50
2017-09-15T13:55:00.571Z,22.88
2017-09-15T13:57:32.002Z,22.13
2017-09-15T14:00:05.621Z,21.61
2017-09-15T14:02:37.696Z,21.21
2017-09-15T14:05:04.126Z,21.21
2017-09-15T14:07:35.522Z,21.10
2017-09-15T14:10:07.974Z,20.79
2017-09-15T14:12:40.143Z,20.38
2017-09-15T14:15:11.410Z,20.04
2017-09-15T14:17:44.662Z,19.80
2017-09-15T14:20:11.369Z,19.29
2017-09-15T14:22:43.043Z,19.11
2017-09-15T14:25:09.717Z,18.93
2017-09-15T14:27:35.976Z,18.65
2017-09-15T14:30:03.234Z,18.36
2017-09-15T14:32:29.760Z,18.33
2017-09-15T14:34:55.991Z,18.27
2017-09-15T14:37:22.178Z,18.22
2017-09-15T14:39:49.249Z,18.15
2017-09-15T14:42:15.506Z,18.05
2017-09-15T14:44:42.778Z,18.07
2017-09-15T14:47:09.020Z,18.02
2017-09-15T14:49:35.355Z,18.00
2017-09-15T14:52:01.558Z,17.91
2017-09-15T14:54:27.809Z,18.00
2017-09-15T14:56:54.049Z,18.07
2017-09-15T14:59:21.330Z,18.14
2017-09-15T15:01:48.453Z,18.12
2017-09-15T15:04:14.683Z,18.16
2017-09-15T15:06:40.926Z,18.08
2017-09-15T15:09:07.189Z,17.99
2017-09-15T15:11:33.817Z,17.91
2017-09-15T15:14:00.021Z,17.62
2017-09-15T15:16:26.245Z,17.70
2017-09-15T15:18:52.579Z,17.48
2017-09-15T15:21:18.790Z,17.48
2017-09-15T15:23:45.070Z,17.41
2017-09-15T15:26:11.361Z,17.36
2017-09-15T15:28:38.353Z,17.27
2017-09-15T15:31:04.758Z,17.12
2017-09-15T15:33:31.781Z,17.30
2017-09-15T15:35:58.005Z,17.01
2017-09-15T15:38:24.271Z,17.03
2017-09-15T15:40:51.293Z,16.96
2017-09-15T15:43:19.344Z,16.89
2017-09-15T15:45:45.547Z,16.99
2017-09-15T15:48:12.141Z,16.90
2017-09-15T15:50:38.484Z,16.88
2017-09-15T15:53:04.721Z,16.80
2017-09-15T15:55:31.065Z,16.74
2017-09-15T15:57:57.382Z,16.69
2017-09-15T16:00:23.614Z,16.52
2017-09-15T16:02:49.848Z,16.51
2017-09-15T16:05:16.057Z,16.40
2017-09-15T16:07:43.268Z,16.30
2017-09-15T16:10:09.612Z,16.34
2017-09-15T16:12:36.598Z,16.22
2017-09-15T16:15:08.277Z,16.18
2017-09-15T16:17:35.861Z,16.21
2017-09-15T16:20:02.128Z,16.15
2017-09-15T16:22:29.154Z,16.11
2017-09-15T16:25:00.709Z,16.08
2017-09-15T16:27:33.893Z,16.05
2017-09-15T16:30:09.952Z,15.98
2017-09-15T16:32:40.974Z,15.91
2017-09-15T16:35:10.029Z,15.78
2017-09-15T16:37:40.627Z,15.81
2017-09-15T16:40:13.821Z,15.74
2017-09-15T16:42:47.005Z,15.59
2017-09-15T16:45:20.158Z,15.49
2017-09-15T16:47:53.411Z,15.45
2017-09-15T16:50:19.806Z,15.34
2017-09-15T16:52:46.075Z,15.29
2017-09-15T16:55:12.364Z,15.21
2017-09-15T16:57:39.337Z,15.35
2017-09-15T17:00:05.748Z,15.17
2017-09-15T17:02:32.698Z,14.99
2017-09-15T17:04:59.821Z,14.87
2017-09-15T17:07:26.169Z,14.86
2017-09-15T17:09:52.490Z,14.69
2017-09-15T17:12:18.929Z,14.65
2017-09-15T17:14:46.169Z,14.51
2017-09-15T17:17:12.351Z,14.33
2017-09-15T17:19:38.661Z,14.28
2017-09-15T17:22:04.966Z,14.18
2017-09-15T17:24:31.386Z,14.02
2017-09-15T17:26:58.602Z,13.86
2017-09-15T17:29:24.874Z,13.80
2017-09-15T17:31:51.162Z,13.84
2017-09-15T17:34:17.379Z,13.68
2017-09-15T17:36:43.700Z,13.45
2017-09-15T17:39:09.949Z,13.45
2017-09-15T17:41:36.305Z,13.32
2017-09-15T17:44:02.542Z,13.16
2017-09-15T17:46:28.885Z,13.04
2017-09-15T17:48:55.523Z,12.93
2017-09-15T17:51:21.854Z,12.87
2017-09-15T17:53:48.186Z,12.74
2017-09-15T17:56:14.518Z,12.76
2017-09-15T17:58:40.816Z,12.72
2017-09-15T18:01:07.069Z,12.67
2017-09-15T18:03:33.319Z,12.62
2017-09-15T18:06:00.396Z,12.59
2017-09-15T18:08:27.409Z,12.49
2017-09-15T18:10:54.027Z,12.41
2017-09-15T18:13:20.306Z,12.30
2017-09-15T18:15:46.541Z,12.21
2017-09-15T18:18:12.792Z,12.13
2017-09-15T18:20:39.181Z,12.08
2017-09-15T18:23:05.420Z,12.01
2017-09-15T18:25:31.715Z,11.98
2017-09-15T18:27:58.131Z,11.96
2017-09-15T18:30:24.577Z,11.98
2017-09-15T18:32:50.802Z,12.01
2017-09-15T18:35:17.029Z,12.01
2017-09-15T18:37:43.287Z,11.95
2017-09-15T18:40:09.638Z,11.91
2017-09-15T18:42:41.455Z,11.83
2017-09-15T18:45:08.317Z,11.75
2017-09-15T18:47:34.705Z,11.69
2017-09-15T18:50:02.743Z,11.65
2017-09-15T18:52:29.431Z,11.64
2017-09-15T18:54:55.775Z,11.75
2017-09-15T18:57:22.040Z,11.58
2017-09-15T18:59:48.414Z,11.54
2017-09-15T19:02:15.401Z,11.50
2017-09-15T19:04:41.649Z,11.45
2017-09-15T19:07:07.902Z,11.42
2017-09-15T19:09:34.117Z,11.37
2017-09-15T19:12:00.393Z,11.35
2017-09-15T19:14:26.749Z,11.33
2017-09-15T19:16:53.772Z,11.34
2017-09-15T19:19:19.985Z,11.39
2017-09-15T19:21:46.836Z,11.43
2017-09-15T19:24:13.991Z,11.45
2017-09-15T19:26:40.453Z,11.46
2017-09-15T19:29:06.855Z,11.49
2017-09-15T19:31:33.120Z,11.50
2017-09-15T19:33:59.430Z,11.51
2017-09-15T19:36:25.686Z,11.51
2017-09-15T19:38:51.913Z,11.51
2017-09-15T19:41:18.194Z,11.52
2017-09-15T19:43:44.473Z,11.51
2017-09-15T19:46:10.718Z,11.52
2017-09-15T19:48:37.291Z,11.51
2017-09-15T19:51:04.414Z,11.53
2017-09-15T19:53:30.639Z,11.55
2017-09-15T19:55:56.893Z,11.53
2017-09-15T19:58:23.142Z,11.47
2017-09-15T20:00:49.480Z,11.41
2017-09-15T20:03:15.790Z,11.36
2017-09-15T20:05:42.291Z,11.39
2017-09-15T20:08:09.290Z,11.27
2017-09-15T20:10:35.578Z,11.22
2017-09-15T20:13:02.029Z,11.25
2017-09-15T20:15:28.214Z,11.27
2017-09-15T20:17:54.528Z,11.25
2017-09-15T20:20:20.863Z,11.30
2017-09-15T20:22:47.121Z,11.24
2017-09-15T20:25:13.415Z,11.18
2017-09-15T20:27:39.694Z,11.15
2017-09-15T20:30:05.910Z,11.13
2017-09-15T20:32:32.250Z,11.13
2017-09-15T20:34:59.229Z,11.11
2017-09-15T20:37:25.533Z,11.06
2017-09-15T20:39:51.874Z,11.08
2017-09-15T20:42:18.109Z,11.03
2017-09-15T20:44:44.440Z,11.04
2017-09-15T20:47:11.766Z,11.06
2017-09-15T20:49:38.027Z,11.03
2017-09-15T20:52:05.227Z,10.99
2017-09-15T20:54:31.582Z,10.99
2017-09-15T20:56:59.827Z,11.06
2017-09-15T20:59:26.006Z,11.07
2017-09-15T21:01:52.542Z,11.00
2017-09-15T21:04:18.814Z,10.92
2017-09-15T21:06:44.997Z,10.87
2017-09-15T21:09:12.121Z,10.83
2017-09-15T21:11:38.486Z,10.78
2017-09-15T21:14:04.777Z,10.76
2017-09-15T21:16:31.045Z,10.78
2017-09-15T21:18:57.349Z,10.76
2017-09-15T21:21:23.680Z,10.73
2017-09-15T21:23:49.940Z,10.72
2017-09-15T21:26:16.233Z,10.72
2017-09-15T21:28:43.038Z,10.84
2017-09-15T21:31:10.324Z,10.83
2017-09-15T21:33:37.515Z,10.80
2017-09-15T21:36:03.799Z,10.81
2017-09-15T21:38:30.825Z,10.83
2017-09-15T21:40:57.031Z,10.83
2017-09-15T21:43:23.337Z,10.83
2017-09-15T21:45:49.614Z,10.81
2017-09-15T21:48:16.882Z,10.80
2017-09-15T21:50:43.121Z,10.81
2017-09-15T21:53:11.502Z,10.92
2017-09-15T21:55:42.860Z,10.93
2017-09-15T21:58:09.414Z,10.91
2017-09-15T22:00:35.698Z,10.86
2017-09-15T22:03:01.947Z,10.83
2017-09-15T22:05:28.179Z,10.85
2017-09-15T22:07:54.426Z,10.77
2017-09-15T22:10:21.140Z,10.70
2017-09-15T22:12:47.710Z,10.70
2017-09-15T22:15:15.142Z,10.71
2017-09-15T22:17:41.422Z,10.68
2017-09-15T22:20:08.237Z,10.66
2017-09-15T22:22:34.490Z,10.67
2017-09-15T22:25:00.738Z,10.65
2017-09-15T22:27:27.034Z,10.64
2017-09-15T22:29:53.301Z,10.63
2017-09-15T22:32:19.553Z,10.63
2017-09-15T22:34:46.574Z,10.64
2017-09-15T22:37:12.793Z,10.68
2017-09-15T22:39:39.077Z,10.68
2017-09-15T22:42:05.385Z,10.69
2017-09-15T22:44:31.577Z,10.75
2017-09-15T22:46:58.591Z,10.76
2017-09-15T22:49:24.875Z,10.83
2017-09-15T22:51:51.162Z,10.84
2017-09-15T22:54:29.756Z,10.81
2017-09-15T22:56:55.982Z,10.77
2017-09-15T22:59:23.242Z,10.82
2017-09-15T23:01:49.610Z,10.80
2017-09-15T23:04:15.925Z,10.76
2017-09-15T23:06:42.114Z,10.77
2017-09-15T23:09:09.127Z,10.80
2017-09-15T23:11:35.309Z,10.79
2017-09-15T23:14:01.550Z,10.74
2017-09-15T23:16:27.733Z,10.76
2017-09-15T23:18:54.026Z,10.75
2017-09-15T23:21:20.287Z,10.71
2017-09-15T23:23:46.558Z,10.69
2017-09-15T23:26:13.598Z,10.67
2017-09-15T23:28:39.911Z,10.71
2017-09-15T23:31:06.144Z,10.74
2017-09-15T23:33:32.462Z,10.76
2017-09-15T23:35:58.716Z,10.79
2017-09-15T23:38:24.925Z,10.79
2017-09-15T23:40:51.199Z,10.82
2017-09-15T23:43:17.410Z,10.89
2017-09-15T23:45:43.625Z,10.93
2017-09-15T23:48:09.884Z,10.90
2017-09-15T23:50:36.074Z,10.92
2017-09-15T23:53:02.357Z,10.89
2017-09-15T23:55:28.684Z,10.92
2017-09-15T23:57:54.945Z,10.94
